Time;durP1;ratioP1;P1;durP2;ratioP2;P2;SDS_P1;SDS_P2;PMS_P1;PMS_P2;Temp;Humidity;BMP_temperature;BMP_pressure;BME280_temperature;BME280_humidity;BME280_pressure;Samples;Min_cycle;Max_cycle;Signal;HPM_P1;HPM_P2
2021/12/21 00:06:22;;;;;;;11.77;5.63;;;;;;;-0.28;100.00;100940.95;714284;1199;115722;-77
2021/12/21 00:21:37;;;;;;;13.83;5.43;;;;;;;-0.32;100.00;100939.38;714567;1200;115016;-78
2021/12/21 00:36:39;;;;;;;28.60;8.70;;;;;;;-0.24;100.00;100960.63;714326;1177;114338;-79
2021/12/21 00:51:46;;;;;;;19.48;7.35;;;;;;;-0.24;100.00;100977.81;714251;1199;114358;-78
2021/12/21 01:07:53;;;;;;;21.67;7.20;;;;;;;-0.34;100.00;100987.59;714650;1178;115280;-79
2021/12/21 01:22:38;;;;;;;19.03;6.45;;;;;;;-0.29;100.00;101000.33;714434;1178;114738;-80
2021/12/21 01:37:58;;;;;;;13.60;5.67;;;;;;;-0.42;99.99;101013.61;714055;1182;115176;-80
2021/12/21 01:53:00;;;;;;;22.75;9.23;;;;;;;-0.61;100.00;101012.47;714208;1199;114150;-79
2021/12/21 02:08:04;;;;;;;20.23;7.03;;;;;;;-0.72;99.77;101041.97;714140;1200;115105;-79
2021/12/21 02:23:33;;;;;;;7.78;4.33;;;;;;;-0.81;97.94;101057.70;714346;1199;114470;-80
2021/12/21 02:38:36;;;;;;;10.15;3.15;;;;;;;-0.98;97.32;101071.05;714302;1199;115197;-80
2021/12/21 02:53:38;;;;;;;13.95;4.95;;;;;;;-1.22;94.98;101093.16;714182;1199;115524;-80
2021/12/21 03:08:44;;;;;;;6.20;2.98;;;;;;;-1.24;94.50;101090.63;714784;1199;115808;-80
2021/12/21 03:23:47;;;;;;;12.50;6.40;;;;;;;-1.32;94.05;101081.41;714225;1177;114081;-80
2021/12/21 03:39:16;;;;;;;13.23;5.75;;;;;;;-1.55;93.45;101086.24;714411;1199;114484;-80
2021/12/21 03:54:15;;;;;;;;;;;;;;;-1.85;92.50;101082.69;714350;1199;114544;-79
2021/12/21 04:09:18;;;;;;;9.30;4.17;;;;;;;-1.89;91.66;101107.66;714302;1200;100832;-78
2021/12/21 04:24:20;;;;;;;24.80;9.85;;;;;;;-1.98;90.43;101117.30;717156;1174;115280;-80
2021/12/21 04:39:42;;;;;;;24.90;7.83;;;;;;;-1.89;89.39;101125.66;715548;1178;114211;-79
2021/12/21 04:54:44;;;;;;;49.00;15.88;;;;;;;-2.05;88.30;101132.84;726826;1200;115698;-79
2021/12/21 05:09:55;;;;;;;338.27;58.87;;;;;;;-2.12;87.22;101136.45;714242;1199;115746;-78
2021/12/21 05:24:57;;;;;;;104.03;23.58;;;;;;;-2.06;87.34;101156.90;714281;1202;114542;-79
2021/12/21 05:40:15;;;;;;;162.53;39.10;;;;;;;-2.20;87.65;101154.61;714350;1199;114616;-79
2021/12/21 05:55:18;;;;;;;33.65;17.10;;;;;;;-2.27;87.72;101168.48;713928;1199;115307;-79
2021/12/21 06:10:28;;;;;;;104.35;34.05;;;;;;;-2.28;87.74;101165.91;714066;1199;115933;-80
2021/12/21 06:40:37;;;;;;;52.85;23.58;;;;;;;-2.88;89.42;101137.11;713999;1199;115558;-79
2021/12/21 06:55:39;;;;;;;354.80;177.47;;;;;;;-2.85;89.91;101153.31;714240;1203;114423;-78
2021/12/21 07:10:52;;;;;;;83.48;30.10;;;;;;;-2.61;90.45;101168.28;714177;1199;115592;-73
2021/12/21 07:25:54;;;;;;;140.38;52.35;;;;;;;-2.48;90.77;101174.03;714817;1203;114761;-74
2021/12/21 07:40:57;;;;;;;70.03;28.43;;;;;;;-2.42;90.55;101169.62;714737;1202;115044;-74
2021/12/21 07:56:02;;;;;;;74.65;33.23;;;;;;;-2.23;91.11;101167.53;714488;1199;114690;-73
2021/12/21 08:11:15;;;;;;;48.28;17.15;;;;;;;-1.93;91.18;101178.03;715038;1199;114883;-77
2021/12/21 08:26:18;;;;;;;57.75;24.88;;;;;;;-1.88;91.25;101176.20;714523;1183;113766;-76
2021/12/21 08:41:22;;;;;;;47.80;19.35;;;;;;;-1.86;92.39;101183.88;715093;1200;114415;-75
2021/12/21 08:56:25;;;;;;;43.40;15.65;;;;;;;-1.85;92.43;101176.16;714819;1201;115252;-75
2021/12/21 09:11:27;;;;;;;43.33;15.80;;;;;;;-1.72;91.99;101186.16;715007;1199;115312;-73
2021/12/21 09:26:29;;;;;;;62.63;26.63;;;;;;;-1.69;90.55;101191.23;714792;1200;115546;-76
2021/12/21 09:41:32;;;;;;;43.88;19.73;;;;;;;-0.86;88.22;101180.65;718483;1200;114964;-77
2021/12/21 09:56:35;;;;;;;46.30;22.40;;;;;;;0.00;87.27;101154.22;717081;1199;115625;-76
2021/12/21 10:11:47;;;;;;;34.60;13.00;;;;;;;0.84;86.14;101144.66;714942;1200;114499;-74
2021/12/21 10:26:52;;;;;;;21.28;9.65;;;;;;;1.83;83.53;101138.56;715200;1199;114491;-74
2021/12/21 10:42:03;;;;;;;22.08;10.33;;;;;;;2.08;81.93;101133.28;714702;1200;114453;-74
2021/12/21 10:57:15;;;;;;;17.28;9.40;;;;;;;1.88;79.42;101121.12;715516;1199;114405;-87
2021/12/21 11:12:17;;;;;;;26.25;11.80;;;;;;;2.34;80.29;101108.11;717972;1199;114231;-89
2021/12/21 11:27:23;;;;;;;52.93;19.28;;;;;;;1.56;79.71;101112.83;720293;1178;114443;-80
2021/12/21 11:42:43;;;;;;;36.20;15.73;;;;;;;2.30;80.97;101119.50;717053;1199;115698;-76
2021/12/21 11:57:51;;;;;;;55.63;21.20;;;;;;;2.15;81.41;101120.94;714481;1199;114693;-77
2021/12/21 12:12:54;;;;;;;189.80;65.63;;;;;;;2.36;81.51;101119.23;715265;1174;114333;-77
2021/12/21 12:27:57;;;;;;;70.97;28.57;;;;;;;1.88;80.10;101108.17;715581;1199;114757;-80
2021/12/21 12:43:07;;;;;;;57.57;23.80;;;;;;;1.52;80.53;101107.81;714617;1177;114347;-82
2021/12/21 12:58:16;;;;;;;33.03;14.40;;;;;;;0.93;81.50;101104.75;717083;1199;114326;-79
2021/12/21 13:13:20;;;;;;;153.40;43.90;;;;;;;0.32;83.78;101101.58;716092;1199;115499;-77
2021/12/21 13:28:23;;;;;;;132.73;43.27;;;;;;;0.12;84.77;101104.80;716782;1177;114032;-81
2021/12/21 13:43:25;;;;;;;55.83;20.65;;;;;;;1.16;84.45;101109.09;717062;1181;115091;-79
2021/12/21 13:58:28;;;;;;;44.83;18.30;;;;;;;0.44;84.84;101108.08;717705;1202;114591;-82
2021/12/21 14:13:40;;;;;;;52.50;21.20;;;;;;;0.02;85.50;101116.30;721357;1166;114225;-82
2021/12/21 14:28:57;;;;;;;84.65;27.10;;;;;;;-0.26;86.72;101111.97;716715;1203;114957;-79
2021/12/21 14:44:00;;;;;;;125.85;40.40;;;;;;;-0.18;87.62;101097.11;714881;1200;114792;-79
2021/12/21 14:59:08;;;;;;;125.47;61.90;;;;;;;-0.37;88.47;101089.09;715524;1199;115869;-79
2021/12/21 15:14:11;;;;;;;202.73;84.58;;;;;;;-0.29;88.77;101099.18;714447;1199;114491;-79
2021/12/21 15:29:14;;;;;;;113.73;38.03;;;;;;;-0.62;89.48;101095.83;714208;1195;114097;-78
2021/12/21 15:44:22;;;;;;;81.58;36.50;;;;;;;-0.89;88.78;101080.27;714384;1177;114646;-78
2021/12/21 15:59:26;;;;;;;97.83;34.33;;;;;;;-1.21;89.67;101075.09;714317;1199;116026;-75
2021/12/21 16:14:29;;;;;;;48.43;19.78;;;;;;;-1.33;89.78;101085.72;714574;1177;114628;-80
2021/12/21 16:29:31;;;;;;;53.73;23.17;;;;;;;-1.53;89.42;101093.92;714281;1199;114026;-76
2021/12/21 16:44:34;;;;;;;280.30;84.50;;;;;;;-1.68;90.12;101095.15;714414;1177;114174;-75
2021/12/21 16:59:37;;;;;;;133.50;47.10;;;;;;;-1.53;89.52;101099.94;714447;1188;114208;-75
2021/12/21 17:14:39;;;;;;;100.33;33.13;;;;;;;-1.60;89.57;101093.23;714232;1200;115912;-76
2021/12/21 17:29:44;;;;;;;82.90;34.53;;;;;;;-1.68;90.43;101092.58;714166;1199;115850;-76
2021/12/21 17:44:46;;;;;;;183.05;59.70;;;;;;;-1.77;90.83;101111.67;714433;1177;114347;-75
2021/12/21 17:59:49;;;;;;;270.73;64.97;;;;;;;-1.87;91.17;101126.45;714239;1174;114766;-75
2021/12/21 18:14:51;;;;;;;127.03;38.78;;;;;;;-1.71;92.10;101128.69;714315;1202;116072;-75
2021/12/21 18:29:56;;;;;;;101.97;25.53;;;;;;;-1.74;92.44;101119.31;714256;1178;116273;-75
2021/12/21 18:44:59;;;;;;;105.68;36.98;;;;;;;-1.57;94.07;101128.34;714432;1175;113846;-74
2021/12/21 19:00:05;;;;;;;77.28;26.83;;;;;;;-1.31;93.99;101145.73;714327;1176;114769;-74
2021/12/21 19:15:07;;;;;;;51.73;19.73;;;;;;;-1.41;94.37;101154.55;714349;1197;114827;-74
2021/12/21 19:30:14;;;;;;;60.65;21.43;;;;;;;-1.29;94.95;101168.86;714372;1199;114841;-75
2021/12/21 19:45:17;;;;;;;45.65;19.98;;;;;;;-1.17;95.04;101165.99;714780;1200;114220;-73
2021/12/21 20:00:23;;;;;;;27.43;12.63;;;;;;;-0.94;95.40;101186.00;715257;1199;115169;-75
2021/12/21 20:15:32;;;;;;;40.63;16.00;;;;;;;-1.21;94.67;101193.55;714806;1174;114402;-75
2021/12/21 20:30:39;;;;;;;71.75;27.43;;;;;;;-1.43;93.92;101203.50;714499;1200;115141;-75
2021/12/21 20:45:42;;;;;;;42.98;16.55;;;;;;;-1.12;94.57;101213.08;714540;1200;114321;-75
2021/12/21 21:00:47;;;;;;;37.25;16.15;;;;;;;-0.91;94.66;101214.28;714743;1174;116726;-75
2021/12/21 21:15:49;;;;;;;35.30;17.00;;;;;;;-0.89;94.28;101227.95;714694;1176;114442;-75
2021/12/21 21:30:51;;;;;;;248.73;61.10;;;;;;;-1.01;94.77;101223.95;714852;1191;114778;-74
2021/12/21 21:45:54;;;;;;;417.43;110.20;;;;;;;-1.18;95.25;101226.94;714545;1175;114739;-75
2021/12/21 22:00:56;;;;;;;57.00;25.03;;;;;;;-1.29;95.10;101239.23;714531;1177;114523;-75
2021/12/21 22:16:00;;;;;;;195.65;70.75;;;;;;;-1.08;95.34;101250.75;714580;1175;115045;-74
2021/12/21 22:31:08;;;;;;;28.77;13.60;;;;;;;-1.48;94.74;101240.53;714391;1202;114504;-74
2021/12/21 22:46:11;;;;;;;43.80;14.75;;;;;;;-1.54;94.25;101250.09;714357;1176;115202;-75
2021/12/21 23:01:13;;;;;;;35.63;12.93;;;;;;;-1.94;94.02;101250.95;714556;1200;114878;-74
2021/12/21 23:16:16;;;;;;;38.60;14.60;;;;;;;-2.06;94.46;101259.77;714300;1173;114751;-74
2021/12/21 23:31:19;;;;;;;34.03;10.10;;;;;;;-1.80;94.98;101265.25;716526;1177;114604;-75
2021/12/21 23:46:21;;;;;;;25.45;10.98;;;;;;;-1.58;95.29;101276.77;714463;1200;114901;-75
